sensor_id;sensor_type;location;lat;lon;timestamp;temperature;humidity
38263;DHT22;24054;50.128;19.730;2022-11-13T00:01:07;21.60;61.10
38263;DHT22;24054;50.128;19.730;2022-11-13T00:03:35;21.60;61.10
38263;DHT22;24054;50.128;19.730;2022-11-13T00:06:03;21.60;61.00
38263;DHT22;24054;50.128;19.730;2022-11-13T00:08:30;21.60;61.00
38263;DHT22;24054;50.128;19.730;2022-11-13T00:11:01;21.70;61.10
38263;DHT22;24054;50.128;19.730;2022-11-13T00:13:29;21.60;61.10
38263;DHT22;24054;50.128;19.730;2022-11-13T00:15:58;21.60;61.10
38263;DHT22;24054;50.128;19.730;2022-11-13T00:18:26;21.70;61.20
38263;DHT22;24054;50.128;19.730;2022-11-13T00:20:53;21.60;61.20
38263;DHT22;24054;50.128;19.730;2022-11-13T00:23:21;21.60;61.20
38263;DHT22;24054;50.128;19.730;2022-11-13T00:25:48;21.60;61.20
38263;DHT22;24054;50.128;19.730;2022-11-13T00:28:15;21.60;61.20
38263;DHT22;24054;50.128;19.730;2022-11-13T00:30:42;21.60;61.30
38263;DHT22;24054;50.128;19.730;2022-11-13T00:33:09;21.60;61.30
38263;DHT22;24054;50.128;19.730;2022-11-13T00:35:36;21.60;61.20
38263;DHT22;24054;50.128;19.730;2022-11-13T00:38:03;21.60;61.20
38263;DHT22;24054;50.128;19.730;2022-11-13T00:40:31;21.60;61.20
38263;DHT22;24054;50.128;19.730;2022-11-13T00:42:58;21.50;61.20
38263;DHT22;24054;50.128;19.730;2022-11-13T00:45:25;21.50;61.20
38263;DHT22;24054;50.128;19.730;2022-11-13T00:47:52;21.50;61.20
38263;DHT22;24054;50.128;19.730;2022-11-13T00:50:19;21.50;61.10
38263;DHT22;24054;50.128;19.730;2022-11-13T00:52:46;21.60;61.20
38263;DHT22;24054;50.128;19.730;2022-11-13T00:55:13;21.50;61.10
38263;DHT22;24054;50.128;19.730;2022-11-13T00:57:42;21.50;61.10
38263;DHT22;24054;50.128;19.730;2022-11-13T01:00:10;21.50;61.10
38263;DHT22;24054;50.128;19.730;2022-11-13T01:02:37;21.50;61.10
38263;DHT22;24054;50.128;19.730;2022-11-13T01:05:05;21.50;61.10
38263;DHT22;24054;50.128;19.730;2022-11-13T01:07:34;21.50;61.10
38263;DHT22;24054;50.128;19.730;2022-11-13T01:10:02;21.50;61.10
38263;DHT22;24054;50.128;19.730;2022-11-13T01:12:29;21.50;61.00
38263;DHT22;24054;50.128;19.730;2022-11-13T01:14:58;21.50;61.10
38263;DHT22;24054;50.128;19.730;2022-11-13T01:17:25;21.50;61.00
38263;DHT22;24054;50.128;19.730;2022-11-13T01:19:52;21.50;61.00
38263;DHT22;24054;50.128;19.730;2022-11-13T01:22:19;21.50;60.90
38263;DHT22;24054;50.128;19.730;2022-11-13T01:24:46;21.50;61.00
38263;DHT22;24054;50.128;19.730;2022-11-13T01:27:13;21.50;61.10
38263;DHT22;24054;50.128;19.730;2022-11-13T01:29:41;21.40;60.90
38263;DHT22;24054;50.128;19.730;2022-11-13T01:32:10;21.40;60.90
38263;DHT22;24054;50.128;19.730;2022-11-13T01:34:37;21.40;60.90
38263;DHT22;24054;50.128;19.730;2022-11-13T01:37:04;21.40;60.80
38263;DHT22;24054;50.128;19.730;2022-11-13T01:39:31;21.40;60.80
38263;DHT22;24054;50.128;19.730;2022-11-13T01:41:58;21.40;60.80
38263;DHT22;24054;50.128;19.730;2022-11-13T01:44:25;21.40;60.80
38263;DHT22;24054;50.128;19.730;2022-11-13T01:46:53;21.40;60.80
38263;DHT22;24054;50.128;19.730;2022-11-13T01:49:28;21.40;60.80
38263;DHT22;24054;50.128;19.730;2022-11-13T01:51:58;21.40;60.80
38263;DHT22;24054;50.128;19.730;2022-11-13T01:54:29;21.40;60.80
38263;DHT22;24054;50.128;19.730;2022-11-13T01:56:57;21.30;60.70
38263;DHT22;24054;50.128;19.730;2022-11-13T01:59:27;21.40;60.70
38263;DHT22;24054;50.128;19.730;2022-11-13T02:01:54;21.40;60.70
38263;DHT22;24054;50.128;19.730;2022-11-13T02:04:22;21.30;60.60
38263;DHT22;24054;50.128;19.730;2022-11-13T02:06:53;21.30;60.60
38263;DHT22;24054;50.128;19.730;2022-11-13T02:09:26;21.30;60.60
38263;DHT22;24054;50.128;19.730;2022-11-13T02:11:54;21.30;60.60
38263;DHT22;24054;50.128;19.730;2022-11-13T02:14:23;21.30;60.50
38263;DHT22;24054;50.128;19.730;2022-11-13T02:16:54;21.30;60.50
38263;DHT22;24054;50.128;19.730;2022-11-13T02:19:25;21.30;60.40
38263;DHT22;24054;50.128;19.730;2022-11-13T02:22:00;21.30;60.40
38263;DHT22;24054;50.128;19.730;2022-11-13T02:24:33;21.30;60.40
38263;DHT22;24054;50.128;19.730;2022-11-13T02:27:04;21.30;60.40
38263;DHT22;24054;50.128;19.730;2022-11-13T02:29:32;21.20;60.30
38263;DHT22;24054;50.128;19.730;2022-11-13T02:31:59;21.20;60.30
38263;DHT22;24054;50.128;19.730;2022-11-13T02:34:26;21.30;60.30
38263;DHT22;24054;50.128;19.730;2022-11-13T02:36:54;21.20;60.30
38263;DHT22;24054;50.128;19.730;2022-11-13T02:39:21;21.20;60.20
38263;DHT22;24054;50.128;19.730;2022-11-13T02:41:49;21.20;60.20
38263;DHT22;24054;50.128;19.730;2022-11-13T02:44:16;21.20;60.20
38263;DHT22;24054;50.128;19.730;2022-11-13T02:46:43;21.20;60.20
38263;DHT22;24054;50.128;19.730;2022-11-13T02:49:10;21.20;60.10
38263;DHT22;24054;50.128;19.730;2022-11-13T02:51:37;21.20;60.20
38263;DHT22;24054;50.128;19.730;2022-11-13T02:54:04;21.20;60.10
38263;DHT22;24054;50.128;19.730;2022-11-13T02:56:31;21.20;60.10
38263;DHT22;24054;50.128;19.730;2022-11-13T02:58:59;21.20;60.10
38263;DHT22;24054;50.128;19.730;2022-11-13T03:01:26;21.20;60.00
38263;DHT22;24054;50.128;19.730;2022-11-13T03:03:53;21.20;60.00
38263;DHT22;24054;50.128;19.730;2022-11-13T03:06:20;21.20;60.00
38263;DHT22;24054;50.128;19.730;2022-11-13T03:08:47;21.10;59.90
38263;DHT22;24054;50.128;19.730;2022-11-13T03:11:14;21.10;59.90
38263;DHT22;24054;50.128;19.730;2022-11-13T03:13:41;21.10;59.90
38263;DHT22;24054;50.128;19.730;2022-11-13T03:16:12;21.10;59.90
38263;DHT22;24054;50.128;19.730;2022-11-13T03:18:39;21.10;59.90
38263;DHT22;24054;50.128;19.730;2022-11-13T03:21:08;21.10;59.80
38263;DHT22;24054;50.128;19.730;2022-11-13T03:23:35;21.10;59.80
38263;DHT22;24054;50.128;19.730;2022-11-13T03:26:04;21.10;59.80
38263;DHT22;24054;50.128;19.730;2022-11-13T03:28:31;21.10;59.80
38263;DHT22;24054;50.128;19.730;2022-11-13T03:30:58;21.10;59.80
38263;DHT22;24054;50.128;19.730;2022-11-13T03:33:26;21.10;59.70
38263;DHT22;24054;50.128;19.730;2022-11-13T03:35:54;21.10;59.70
38263;DHT22;24054;50.128;19.730;2022-11-13T03:38:21;21.10;59.70
38263;DHT22;24054;50.128;19.730;2022-11-13T03:40:48;21.10;59.70
38263;DHT22;24054;50.128;19.730;2022-11-13T03:43:16;21.10;59.70
38263;DHT22;24054;50.128;19.730;2022-11-13T03:45:43;21.10;59.60
38263;DHT22;24054;50.128;19.730;2022-11-13T03:48:11;21.10;59.60
38263;DHT22;24054;50.128;19.730;2022-11-13T03:50:42;21.10;59.50
38263;DHT22;24054;50.128;19.730;2022-11-13T03:53:09;21.10;59.60
38263;DHT22;24054;50.128;19.730;2022-11-13T03:55:36;21.00;59.50
38263;DHT22;24054;50.128;19.730;2022-11-13T03:58:03;21.00;59.50
38263;DHT22;24054;50.128;19.730;2022-11-13T04:00:31;21.00;59.40
38263;DHT22;24054;50.128;19.730;2022-11-13T04:02:58;21.00;59.40
38263;DHT22;24054;50.128;19.730;2022-11-13T04:05:25;21.00;59.40
38263;DHT22;24054;50.128;19.730;2022-11-13T04:07:55;21.00;59.40
38263;DHT22;24054;50.128;19.730;2022-11-13T04:10:22;21.00;59.40
38263;DHT22;24054;50.128;19.730;2022-11-13T04:12:49;21.00;59.40
38263;DHT22;24054;50.128;19.730;2022-11-13T04:15:16;21.00;59.40
38263;DHT22;24054;50.128;19.730;2022-11-13T04:17:43;21.00;59.40
38263;DHT22;24054;50.128;19.730;2022-11-13T04:20:11;21.00;59.30
38263;DHT22;24054;50.128;19.730;2022-11-13T04:22:38;21.00;59.30
38263;DHT22;24054;50.128;19.730;2022-11-13T04:25:07;21.00;59.40
38263;DHT22;24054;50.128;19.730;2022-11-13T04:27:34;21.00;59.30
38263;DHT22;24054;50.128;19.730;2022-11-13T04:30:02;21.00;59.20
38263;DHT22;24054;50.128;19.730;2022-11-13T04:32:30;21.00;59.20
38263;DHT22;24054;50.128;19.730;2022-11-13T04:34:57;21.00;59.20
38263;DHT22;24054;50.128;19.730;2022-11-13T04:37:24;21.00;59.20
38263;DHT22;24054;50.128;19.730;2022-11-13T04:39:51;21.00;59.20
38263;DHT22;24054;50.128;19.730;2022-11-13T04:42:19;20.90;59.20
38263;DHT22;24054;50.128;19.730;2022-11-13T04:45:04;20.90;59.10
38263;DHT22;24054;50.128;19.730;2022-11-13T04:47:31;21.00;59.20
38263;DHT22;24054;50.128;19.730;2022-11-13T04:49:58;20.90;59.00
38263;DHT22;24054;50.128;19.730;2022-11-13T04:52:25;20.90;59.00
38263;DHT22;24054;50.128;19.730;2022-11-13T04:54:53;20.90;59.00
38263;DHT22;24054;50.128;19.730;2022-11-13T04:57:21;20.90;59.00
38263;DHT22;24054;50.128;19.730;2022-11-13T04:59:48;20.90;59.00
38263;DHT22;24054;50.128;19.730;2022-11-13T05:02:15;20.90;59.00
38263;DHT22;24054;50.128;19.730;2022-11-13T05:04:42;20.90;59.00
38263;DHT22;24054;50.128;19.730;2022-11-13T05:07:10;20.90;59.00
38263;DHT22;24054;50.128;19.730;2022-11-13T05:09:37;20.90;58.90
38263;DHT22;24054;50.128;19.730;2022-11-13T05:12:04;20.90;59.00
38263;DHT22;24054;50.128;19.730;2022-11-13T05:14:34;20.90;59.00
38263;DHT22;24054;50.128;19.730;2022-11-13T05:17:01;20.90;58.90
38263;DHT22;24054;50.128;19.730;2022-11-13T05:19:28;20.90;59.00
38263;DHT22;24054;50.128;19.730;2022-11-13T05:21:55;20.90;58.90
38263;DHT22;24054;50.128;19.730;2022-11-13T05:24:22;20.90;58.90
38263;DHT22;24054;50.128;19.730;2022-11-13T05:26:49;20.90;58.80
38263;DHT22;24054;50.128;19.730;2022-11-13T05:29:17;20.90;58.80
38263;DHT22;24054;50.128;19.730;2022-11-13T05:31:45;20.90;58.80
38263;DHT22;24054;50.128;19.730;2022-11-13T05:34:13;20.90;58.80
38263;DHT22;24054;50.128;19.730;2022-11-13T05:36:40;20.80;58.70
38263;DHT22;24054;50.128;19.730;2022-11-13T05:39:07;20.80;58.70
38263;DHT22;24054;50.128;19.730;2022-11-13T05:41:34;20.80;58.80
38263;DHT22;24054;50.128;19.730;2022-11-13T05:44:01;20.80;58.80
38263;DHT22;24054;50.128;19.730;2022-11-13T05:46:29;20.80;58.70
38263;DHT22;24054;50.128;19.730;2022-11-13T05:48:59;20.80;58.70
38263;DHT22;24054;50.128;19.730;2022-11-13T05:51:27;20.80;58.60
38263;DHT22;24054;50.128;19.730;2022-11-13T05:53:55;20.80;58.60
38263;DHT22;24054;50.128;19.730;2022-11-13T05:56:24;20.80;58.60
38263;DHT22;24054;50.128;19.730;2022-11-13T05:58:53;20.80;58.60
38263;DHT22;24054;50.128;19.730;2022-11-13T06:01:22;20.80;58.50
38263;DHT22;24054;50.128;19.730;2022-11-13T06:03:50;20.80;58.50
38263;DHT22;24054;50.128;19.730;2022-11-13T06:06:20;20.80;58.50
38263;DHT22;24054;50.128;19.730;2022-11-13T06:08:48;20.80;58.50
38263;DHT22;24054;50.128;19.730;2022-11-13T06:11:16;20.80;58.60
38263;DHT22;24054;50.128;19.730;2022-11-13T06:13:44;20.80;58.70
38263;DHT22;24054;50.128;19.730;2022-11-13T06:16:13;20.80;58.80
38263;DHT22;24054;50.128;19.730;2022-11-13T06:18:41;20.80;58.70
38263;DHT22;24054;50.128;19.730;2022-11-13T06:21:09;20.90;58.90
38263;DHT22;24054;50.128;19.730;2022-11-13T06:23:39;20.90;59.00
38263;DHT22;24054;50.128;19.730;2022-11-13T06:26:08;20.90;59.10
38263;DHT22;24054;50.128;19.730;2022-11-13T06:28:35;20.90;59.10
38263;DHT22;24054;50.128;19.730;2022-11-13T06:31:03;21.00;59.20
38263;DHT22;24054;50.128;19.730;2022-11-13T06:33:30;21.00;59.20
38263;DHT22;24054;50.128;19.730;2022-11-13T06:36:00;21.00;59.20
38263;DHT22;24054;50.128;19.730;2022-11-13T06:38:29;21.00;59.20
38263;DHT22;24054;50.128;19.730;2022-11-13T06:40:58;21.10;59.20
38263;DHT22;24054;50.128;19.730;2022-11-13T06:43:25;21.10;59.20
38263;DHT22;24054;50.128;19.730;2022-11-13T06:45:52;21.10;59.20
38263;DHT22;24054;50.128;19.730;2022-11-13T06:48:19;21.10;59.20
38263;DHT22;24054;50.128;19.730;2022-11-13T06:50:47;21.20;59.20
38263;DHT22;24054;50.128;19.730;2022-11-13T06:53:14;21.20;59.30
38263;DHT22;24054;50.128;19.730;2022-11-13T06:55:42;21.20;59.30
38263;DHT22;24054;50.128;19.730;2022-11-13T06:58:11;21.20;59.20
38263;DHT22;24054;50.128;19.730;2022-11-13T07:00:39;21.30;59.30
38263;DHT22;24054;50.128;19.730;2022-11-13T07:03:10;21.30;59.30
38263;DHT22;24054;50.128;19.730;2022-11-13T07:05:40;21.30;59.30
38263;DHT22;24054;50.128;19.730;2022-11-13T07:08:07;21.30;59.20
38263;DHT22;24054;50.128;19.730;2022-11-13T07:10:37;21.30;59.20
38263;DHT22;24054;50.128;19.730;2022-11-13T07:13:04;21.30;59.10
38263;DHT22;24054;50.128;19.730;2022-11-13T07:15:34;21.30;59.10
38263;DHT22;24054;50.128;19.730;2022-11-13T07:18:01;21.40;59.10
38263;DHT22;24054;50.128;19.730;2022-11-13T07:20:28;21.40;59.10
38263;DHT22;24054;50.128;19.730;2022-11-13T07:22:56;21.40;59.10
38263;DHT22;24054;50.128;19.730;2022-11-13T07:25:23;21.40;59.00
38263;DHT22;24054;50.128;19.730;2022-11-13T07:27:50;21.40;59.00
38263;DHT22;24054;50.128;19.730;2022-11-13T07:30:18;21.40;59.00
38263;DHT22;24054;50.128;19.730;2022-11-13T07:32:47;21.40;58.90
38263;DHT22;24054;50.128;19.730;2022-11-13T07:35:14;21.40;58.90
38263;DHT22;24054;50.128;19.730;2022-11-13T07:37:42;21.50;58.90
38263;DHT22;24054;50.128;19.730;2022-11-13T07:40:10;21.50;58.90
38263;DHT22;24054;50.128;19.730;2022-11-13T07:42:37;21.40;58.80
38263;DHT22;24054;50.128;19.730;2022-11-13T07:45:05;21.50;58.80
38263;DHT22;24054;50.128;19.730;2022-11-13T07:47:32;21.50;58.80
38263;DHT22;24054;50.128;19.730;2022-11-13T07:50:04;21.50;58.80
38263;DHT22;24054;50.128;19.730;2022-11-13T07:52:30;21.50;58.70
38263;DHT22;24054;50.128;19.730;2022-11-13T07:54:57;21.50;58.70
38263;DHT22;24054;50.128;19.730;2022-11-13T07:57:24;21.50;58.70
38263;DHT22;24054;50.128;19.730;2022-11-13T07:59:51;21.50;58.60
38263;DHT22;24054;50.128;19.730;2022-11-13T08:02:18;21.50;58.60
38263;DHT22;24054;50.128;19.730;2022-11-13T08:04:45;21.50;58.60
38263;DHT22;24054;50.128;19.730;2022-11-13T08:07:14;21.50;58.60
38263;DHT22;24054;50.128;19.730;2022-11-13T08:09:41;21.50;58.60
38263;DHT22;24054;50.128;19.730;2022-11-13T08:12:08;21.60;58.60
38263;DHT22;24054;50.128;19.730;2022-11-13T08:14:35;21.60;58.50
38263;DHT22;24054;50.128;19.730;2022-11-13T08:17:02;21.60;58.50
38263;DHT22;24054;50.128;19.730;2022-11-13T08:19:29;21.60;58.50
38263;DHT22;24054;50.128;19.730;2022-11-13T08:21:56;21.60;58.40
38263;DHT22;24054;50.128;19.730;2022-11-13T08:24:24;21.60;58.40
38263;DHT22;24054;50.128;19.730;2022-11-13T08:26:51;21.70;58.40
38263;DHT22;24054;50.128;19.730;2022-11-13T08:29:18;21.60;58.30
38263;DHT22;24054;50.128;19.730;2022-11-13T08:31:45;21.70;58.90
38263;DHT22;24054;50.128;19.730;2022-11-13T08:34:12;21.70;58.30
38263;DHT22;24054;50.128;19.730;2022-11-13T08:36:39;21.70;58.30
38263;DHT22;24054;50.128;19.730;2022-11-13T08:39:08;21.60;58.20
38263;DHT22;24054;50.128;19.730;2022-11-13T08:41:36;21.60;58.70
38263;DHT22;24054;50.128;19.730;2022-11-13T08:44:03;21.70;58.20
38263;DHT22;24054;50.128;19.730;2022-11-13T08:46:30;21.60;58.10
38263;DHT22;24054;50.128;19.730;2022-11-13T08:48:57;21.60;58.10
38263;DHT22;24054;50.128;19.730;2022-11-13T08:51:24;21.60;58.10
38263;DHT22;24054;50.128;19.730;2022-11-13T08:53:51;21.60;58.10
38263;DHT22;24054;50.128;19.730;2022-11-13T08:56:19;21.60;58.20
38263;DHT22;24054;50.128;19.730;2022-11-13T08:58:47;21.60;58.30
38263;DHT22;24054;50.128;19.730;2022-11-13T09:01:14;21.60;58.30
38263;DHT22;24054;50.128;19.730;2022-11-13T09:03:41;21.50;58.30
38263;DHT22;24054;50.128;19.730;2022-11-13T09:06:08;21.60;58.40
38263;DHT22;24054;50.128;19.730;2022-11-13T09:08:35;21.50;58.50
38263;DHT22;24054;50.128;19.730;2022-11-13T09:11:02;21.60;58.60
38263;DHT22;24054;50.128;19.730;2022-11-13T09:13:30;21.50;59.00
38263;DHT22;24054;50.128;19.730;2022-11-13T09:15:59;21.60;59.20
38263;DHT22;24054;50.128;19.730;2022-11-13T09:18:26;21.60;59.30
38263;DHT22;24054;50.128;19.730;2022-11-13T09:20:54;21.50;59.40
38263;DHT22;24054;50.128;19.730;2022-11-13T09:23:21;21.50;59.40
38263;DHT22;24054;50.128;19.730;2022-11-13T09:25:48;21.50;59.40
38263;DHT22;24054;50.128;19.730;2022-11-13T09:28:15;21.50;59.30
38263;DHT22;24054;50.128;19.730;2022-11-13T09:30:42;21.60;59.70
38263;DHT22;24054;50.128;19.730;2022-11-13T09:33:11;21.60;59.90
38263;DHT22;24054;50.128;19.730;2022-11-13T09:35:41;21.60;60.10
38263;DHT22;24054;50.128;19.730;2022-11-13T09:38:10;21.60;60.30
38263;DHT22;24054;50.128;19.730;2022-11-13T09:40:42;21.60;60.40
38263;DHT22;24054;50.128;19.730;2022-11-13T09:43:21;21.70;60.80
38263;DHT22;24054;50.128;19.730;2022-11-13T09:45:50;21.70;61.20
38263;DHT22;24054;50.128;19.730;2022-11-13T09:48:26;21.80;61.50
38263;DHT22;24054;50.128;19.730;2022-11-13T09:50:58;21.90;61.70
38263;DHT22;24054;50.128;19.730;2022-11-13T09:53:37;21.90;61.90
38263;DHT22;24054;50.128;19.730;2022-11-13T09:56:16;21.90;61.60
38263;DHT22;24054;50.128;19.730;2022-11-13T09:58:48;21.90;61.60
38263;DHT22;24054;50.128;19.730;2022-11-13T10:01:23;21.90;61.50
38263;DHT22;24054;50.128;19.730;2022-11-13T10:03:58;22.00;61.50
38263;DHT22;24054;50.128;19.730;2022-11-13T10:06:37;21.90;61.40
38263;DHT22;24054;50.128;19.730;2022-11-13T10:09:14;22.00;61.40
38263;DHT22;24054;50.128;19.730;2022-11-13T10:11:47;22.00;61.50
38263;DHT22;24054;50.128;19.730;2022-11-13T10:14:18;22.00;61.60
38263;DHT22;24054;50.128;19.730;2022-11-13T10:16:51;22.00;61.70
38263;DHT22;24054;50.128;19.730;2022-11-13T10:19:24;22.00;61.80
38263;DHT22;24054;50.128;19.730;2022-11-13T10:21:57;22.00;61.80
38263;DHT22;24054;50.128;19.730;2022-11-13T10:24:27;22.10;61.90
38263;DHT22;24054;50.128;19.730;2022-11-13T10:26:57;22.00;61.90
38263;DHT22;24054;50.128;19.730;2022-11-13T10:29:29;22.00;61.90
38263;DHT22;24054;50.128;19.730;2022-11-13T10:32:15;22.10;62.00
38263;DHT22;24054;50.128;19.730;2022-11-13T10:34:47;22.10;62.20
38263;DHT22;24054;50.128;19.730;2022-11-13T10:37:27;22.10;62.70
38263;DHT22;24054;50.128;19.730;2022-11-13T10:39:56;22.10;69.80
38263;DHT22;24054;50.128;19.730;2022-11-13T10:42:27;22.10;62.70
38263;DHT22;24054;50.128;19.730;2022-11-13T10:44:56;22.10;62.90
38263;DHT22;24054;50.128;19.730;2022-11-13T10:47:25;22.10;62.80
38263;DHT22;24054;50.128;19.730;2022-11-13T10:49:55;22.10;62.80
38263;DHT22;24054;50.128;19.730;2022-11-13T10:52:24;22.10;62.90
38263;DHT22;24054;50.128;19.730;2022-11-13T10:55:08;22.10;63.10
38263;DHT22;24054;50.128;19.730;2022-11-13T10:57:38;22.10;63.50
38263;DHT22;24054;50.128;19.730;2022-11-13T11:00:20;22.10;63.60
38263;DHT22;24054;50.128;19.730;2022-11-13T11:02:47;22.10;63.80
38263;DHT22;24054;50.128;19.730;2022-11-13T11:05:21;22.10;64.10
38263;DHT22;24054;50.128;19.730;2022-11-13T11:07:50;22.10;64.40
38263;DHT22;24054;50.128;19.730;2022-11-13T11:10:25;22.10;64.70
38263;DHT22;24054;50.128;19.730;2022-11-13T11:12:54;22.10;65.10
38263;DHT22;24054;50.128;19.730;2022-11-13T11:15:25;22.20;65.70
38263;DHT22;24054;50.128;19.730;2022-11-13T11:17:58;22.10;65.20
38263;DHT22;24054;50.128;19.730;2022-11-13T11:20:41;22.20;65.20
38263;DHT22;24054;50.128;19.730;2022-11-13T11:23:17;22.20;65.80
38263;DHT22;24054;50.128;19.730;2022-11-13T11:25:49;22.10;65.20
38263;DHT22;24054;50.128;19.730;2022-11-13T11:28:24;22.10;65.10
38263;DHT22;24054;50.128;19.730;2022-11-13T11:30:57;22.10;65.30
38263;DHT22;24054;50.128;19.730;2022-11-13T11:33:30;22.10;65.20
38263;DHT22;24054;50.128;19.730;2022-11-13T11:36:05;22.10;65.20
38263;DHT22;24054;50.128;19.730;2022-11-13T11:38:41;22.00;65.20
38263;DHT22;24054;50.128;19.730;2022-11-13T11:41:13;22.00;65.30
38263;DHT22;24054;50.128;19.730;2022-11-13T11:43:42;22.10;65.30
38263;DHT22;24054;50.128;19.730;2022-11-13T11:46:11;22.00;65.20
38263;DHT22;24054;50.128;19.730;2022-11-13T11:48:39;22.00;65.30
38263;DHT22;24054;50.128;19.730;2022-11-13T11:51:15;22.00;65.30
38263;DHT22;24054;50.128;19.730;2022-11-13T11:53:56;22.00;65.30
38263;DHT22;24054;50.128;19.730;2022-11-13T11:56:30;22.00;65.20
38263;DHT22;24054;50.128;19.730;2022-11-13T11:59:07;21.90;65.00
38263;DHT22;24054;50.128;19.730;2022-11-13T12:01:55;21.90;64.90
38263;DHT22;24054;50.128;19.730;2022-11-13T12:04:37;22.00;64.90
38263;DHT22;24054;50.128;19.730;2022-11-13T12:07:21;21.90;64.90
38263;DHT22;24054;50.128;19.730;2022-11-13T12:10:01;21.90;65.10
38263;DHT22;24054;50.128;19.730;2022-11-13T12:12:41;21.90;65.10
38263;DHT22;24054;50.128;19.730;2022-11-13T12:15:19;21.90;65.00
38263;DHT22;24054;50.128;19.730;2022-11-13T12:17:58;21.90;65.00
38263;DHT22;24054;50.128;19.730;2022-11-13T12:20:34;21.90;64.80
38263;DHT22;24054;50.128;19.730;2022-11-13T12:23:14;21.90;64.90
38263;DHT22;24054;50.128;19.730;2022-11-13T12:25:50;21.90;64.80
38263;DHT22;24054;50.128;19.730;2022-11-13T12:28:19;21.90;64.90
38263;DHT22;24054;50.128;19.730;2022-11-13T12:30:55;21.90;64.90
38263;DHT22;24054;50.128;19.730;2022-11-13T12:33:33;21.90;64.70
38263;DHT22;24054;50.128;19.730;2022-11-13T12:36:03;21.90;65.10
38263;DHT22;24054;50.128;19.730;2022-11-13T12:38:38;21.90;65.10
38263;DHT22;24054;50.128;19.730;2022-11-13T12:41:14;21.90;65.10
38263;DHT22;24054;50.128;19.730;2022-11-13T12:44:11;21.90;65.00
38263;DHT22;24054;50.128;19.730;2022-11-13T12:46:41;21.90;65.00
38263;DHT22;24054;50.128;19.730;2022-11-13T12:49:26;21.90;65.00
38263;DHT22;24054;50.128;19.730;2022-11-13T12:51:56;21.90;64.40
38263;DHT22;24054;50.128;19.730;2022-11-13T12:54:29;21.90;64.70
38263;DHT22;24054;50.128;19.730;2022-11-13T12:57:15;21.90;64.50
38263;DHT22;24054;50.128;19.730;2022-11-13T12:59:45;21.90;64.20
38263;DHT22;24054;50.128;19.730;2022-11-13T13:02:35;21.90;64.10
38263;DHT22;24054;50.128;19.730;2022-11-13T13:05:20;21.90;63.90
38263;DHT22;24054;50.128;19.730;2022-11-13T13:10:51;21.70;58.80
38263;DHT22;24054;50.128;19.730;2022-11-13T13:13:28;21.70;60.80
38263;DHT22;24054;50.128;19.730;2022-11-13T13:15:58;21.60;60.60
38263;DHT22;24054;50.128;19.730;2022-11-13T13:18:29;21.60;61.50
38263;DHT22;24054;50.128;19.730;2022-11-13T13:21:03;21.60;61.20
38263;DHT22;24054;50.128;19.730;2022-11-13T13:23:34;21.60;61.60
38263;DHT22;24054;50.128;19.730;2022-11-13T13:26:13;21.60;61.70
38263;DHT22;24054;50.128;19.730;2022-11-13T13:28:42;21.60;61.60
38263;DHT22;24054;50.128;19.730;2022-11-13T13:31:20;21.60;61.80
38263;DHT22;24054;50.128;19.730;2022-11-13T13:33:56;21.60;61.70
38263;DHT22;24054;50.128;19.730;2022-11-13T13:36:34;21.60;61.60
38263;DHT22;24054;50.128;19.730;2022-11-13T13:39:12;21.60;61.90
38263;DHT22;24054;50.128;19.730;2022-11-13T13:41:57;21.60;62.10
38263;DHT22;24054;50.128;19.730;2022-11-13T13:44:37;21.60;62.10
38263;DHT22;24054;50.128;19.730;2022-11-13T13:49:54;21.70;62.50
38263;DHT22;24054;50.128;19.730;2022-11-13T13:52:25;21.70;62.50
38263;DHT22;24054;50.128;19.730;2022-11-13T13:54:57;21.70;63.30
38263;DHT22;24054;50.128;19.730;2022-11-13T13:57:27;21.70;62.90
38263;DHT22;24054;50.128;19.730;2022-11-13T13:59:59;21.70;63.00
38263;DHT22;24054;50.128;19.730;2022-11-13T14:02:27;21.80;63.10
38263;DHT22;24054;50.128;19.730;2022-11-13T14:04:54;21.80;63.10
38263;DHT22;24054;50.128;19.730;2022-11-13T14:07:24;21.80;63.20
38263;DHT22;24054;50.128;19.730;2022-11-13T14:10:05;21.80;63.20
38263;DHT22;24054;50.128;19.730;2022-11-13T14:12:35;21.90;63.10
38263;DHT22;24054;50.128;19.730;2022-11-13T14:15:19;21.90;63.10
38263;DHT22;24054;50.128;19.730;2022-11-13T14:17:47;21.90;63.10
38263;DHT22;24054;50.128;19.730;2022-11-13T14:20:15;21.90;63.10
38263;DHT22;24054;50.128;19.730;2022-11-13T14:22:44;22.00;63.10
38263;DHT22;24054;50.128;19.730;2022-11-13T14:25:19;21.90;62.90
38263;DHT22;24054;50.128;19.730;2022-11-13T14:27:48;21.90;62.90
38263;DHT22;24054;50.128;19.730;2022-11-13T14:30:22;21.90;62.90
38263;DHT22;24054;50.128;19.730;2022-11-13T14:32:50;22.00;62.80
38263;DHT22;24054;50.128;19.730;2022-11-13T14:35:19;22.00;62.80
38263;DHT22;24054;50.128;19.730;2022-11-13T14:37:46;22.00;62.80
38263;DHT22;24054;50.128;19.730;2022-11-13T14:40:20;22.00;62.80
38263;DHT22;24054;50.128;19.730;2022-11-13T14:42:51;22.00;62.70
38263;DHT22;24054;50.128;19.730;2022-11-13T14:45:22;22.00;62.70
38263;DHT22;24054;50.128;19.730;2022-11-13T14:47:57;22.00;62.70
38263;DHT22;24054;50.128;19.730;2022-11-13T14:50:26;22.00;62.70
38263;DHT22;24054;50.128;19.730;2022-11-13T14:52:58;22.00;62.80
38263;DHT22;24054;50.128;19.730;2022-11-13T14:55:27;22.00;62.70
38263;DHT22;24054;50.128;19.730;2022-11-13T14:57:56;22.00;62.70
38263;DHT22;24054;50.128;19.730;2022-11-13T15:00:27;22.00;62.60
38263;DHT22;24054;50.128;19.730;2022-11-13T15:02:56;22.00;62.60
38263;DHT22;24054;50.128;19.730;2022-11-13T15:05:24;22.00;62.60
38263;DHT22;24054;50.128;19.730;2022-11-13T15:07:52;22.00;62.60
38263;DHT22;24054;50.128;19.730;2022-11-13T15:10:23;22.00;62.70
38263;DHT22;24054;50.128;19.730;2022-11-13T15:12:51;22.00;62.80
38263;DHT22;24054;50.128;19.730;2022-11-13T15:15:22;22.00;62.90
38263;DHT22;24054;50.128;19.730;2022-11-13T15:17:51;22.00;63.10
38263;DHT22;24054;50.128;19.730;2022-11-13T15:20:26;22.00;63.10
38263;DHT22;24054;50.128;19.730;2022-11-13T15:22:54;22.10;63.20
38263;DHT22;24054;50.128;19.730;2022-11-13T15:25:25;22.00;63.30
38263;DHT22;24054;50.128;19.730;2022-11-13T15:27:53;22.00;63.40
38263;DHT22;24054;50.128;19.730;2022-11-13T15:30:21;22.00;63.60
38263;DHT22;24054;50.128;19.730;2022-11-13T15:32:49;22.00;63.70
38263;DHT22;24054;50.128;19.730;2022-11-13T15:35:19;22.00;63.80
38263;DHT22;24054;50.128;19.730;2022-11-13T15:37:49;22.00;63.80